Terminal Aerodrome Forecast
Issued by NWS Chicago, IL

Home | Current Version | Previous Version | Text Only | Print | Product List | Glossary Off
Versions: 1 2 3 4 5 6 7 8 9 10 11 12 13 14 15 16 17 18 19 20 21 22 23 24 25 26 27 28 29 30 31 32 33

000
FTUS43 KLOT 262338
TAFRFD
TAF
KRFD 262338Z 2700/2724 10005KT P6SM SCT090 BKN120 OVC250
     FM270200 08003KT P6SM SCT120 BKN250
     FM270700 08003KT 5SM BR SCT250
     FM271600 12010KT P6SM SCT050 BKN250=

USA.gov is the U.S. government's official web portal to all federal, state and local government web resources and services.